createdAt,value
2019-04-14T00:00:15.998Z,18
2019-04-14T00:01:28.108Z,18.4
2019-04-14T00:02:40.386Z,17.8
2019-04-14T00:03:52.632Z,18.4
2019-04-14T00:05:04.787Z,17.9
2019-04-14T00:06:16.947Z,18.3
2019-04-14T00:07:29.059Z,19.2
2019-04-14T00:08:41.273Z,18.2
2019-04-14T00:09:53.506Z,18.8
2019-04-14T00:11:05.723Z,18.3
2019-04-14T00:12:17.953Z,17.8
2019-04-14T00:13:30.065Z,19.3
2019-04-14T00:15:54.520Z,19.1
2019-04-14T00:17:06.734Z,18.8
2019-04-14T00:18:18.804Z,19.1
2019-04-14T00:19:31.090Z,19.4
2019-04-14T00:20:43.188Z,19
2019-04-14T00:21:55.491Z,18.7
2019-04-14T00:23:07.666Z,19
2019-04-14T00:24:19.875Z,18.9
2019-04-14T00:25:32.064Z,19.5
2019-04-14T00:26:44.418Z,19
2019-04-14T00:27:56.490Z,19.3
2019-04-14T00:29:08.809Z,19.5
2019-04-14T00:30:20.773Z,18.8
2019-04-14T00:31:37.682Z,19.4
2019-04-14T00:32:45.137Z,19.3
2019-04-14T00:33:57.447Z,20.3
2019-04-14T00:35:09.528Z,19.5
2019-04-14T00:36:21.937Z,19.8
2019-04-14T00:37:33.971Z,19.7
2019-04-14T00:38:46.126Z,19.8
2019-04-14T00:39:58.412Z,20
2019-04-14T00:41:10.601Z,20.2
2019-04-14T00:42:22.695Z,20
2019-04-14T00:43:34.991Z,19.6
2019-04-14T00:44:47.115Z,20.5
2019-04-14T00:45:59.378Z,20.2
2019-04-14T00:47:11.470Z,19.4
2019-04-14T00:48:23.770Z,19.7
2019-04-14T00:49:35.915Z,19.3
2019-04-14T00:50:48.151Z,19.6
2019-04-14T00:52:00.363Z,19.7
2019-04-14T00:53:12.544Z,20
2019-04-14T00:54:24.632Z,20.2
2019-04-14T00:55:37.013Z,19.5
2019-04-14T00:56:49.113Z,19.7
2019-04-14T00:58:01.313Z,19.7
2019-04-14T00:59:13.410Z,19.9
2019-04-14T01:00:25.704Z,19.6
2019-04-14T01:01:37.886Z,19.6
2019-04-14T01:02:50.182Z,19.5
2019-04-14T01:04:02.286Z,20
2019-04-14T01:05:14.574Z,18.8
2019-04-14T01:06:26.596Z,20.4
2019-04-14T01:07:38.900Z,20.3
2019-04-14T01:08:51.071Z,19.4
2019-04-14T01:10:03.342Z,20.1
2019-04-14T01:11:15.383Z,19.8
2019-04-14T01:12:27.703Z,19.8
2019-04-14T01:13:39.763Z,18.8
2019-04-14T01:14:52.158Z,19.1
2019-04-14T01:16:04.268Z,19.6
2019-04-14T01:17:17.056Z,19.5
2019-04-14T01:18:28.600Z,19.4
2019-04-14T01:19:40.733Z,19.5
2019-04-14T01:20:52.963Z,18.7
2019-04-14T01:22:05.282Z,18.8
2019-04-14T01:23:17.278Z,19.1
2019-04-14T01:24:29.541Z,18.5
2019-04-14T01:25:41.686Z,19.4
2019-04-14T01:26:53.961Z,19.4
2019-04-14T01:28:06.256Z,18.9
2019-04-14T01:29:18.446Z,19.7
2019-04-14T01:30:30.460Z,19.2
2019-04-14T01:31:42.720Z,20
2019-04-14T01:32:54.839Z,19
2019-04-14T01:34:07.157Z,19.7
2019-04-14T01:35:19.224Z,19.7
2019-04-14T01:36:31.427Z,19.2
2019-04-14T01:37:43.620Z,19.2
2019-04-14T01:38:56.256Z,19.2
2019-04-14T01:40:08.112Z,18.9
2019-04-14T01:41:20.788Z,18.8
2019-04-14T01:42:36.561Z,19.3
2019-04-14T01:43:44.667Z,18.6
2019-04-14T01:44:56.841Z,18.7
2019-04-14T01:46:09.108Z,18.4
2019-04-14T01:47:21.380Z,18.4
2019-04-14T01:48:33.564Z,18.1
2019-04-14T01:49:45.581Z,19.3
2019-04-14T01:50:57.871Z,19.6
2019-04-14T01:52:10.084Z,19.2
2019-04-14T01:53:22.325Z,19.1
2019-04-14T01:54:34.358Z,19.3
2019-04-14T01:55:46.536Z,19.5
2019-04-14T01:56:58.725Z,19.1
2019-04-14T01:58:11.175Z,19.6
2019-04-14T01:59:23.106Z,19
2019-04-14T02:00:35.421Z,19.5
2019-04-14T02:01:47.518Z,18.7
2019-04-14T02:02:59.795Z,18.8
2019-04-14T02:04:12.004Z,18.6
2019-04-14T02:05:24.183Z,18.9
2019-04-14T02:06:36.445Z,20.1
2019-04-14T02:07:48.656Z,19.4
2019-04-14T02:09:00.663Z,19.1
2019-04-14T02:10:12.868Z,19.6
2019-04-14T02:11:25.161Z,19.8
2019-04-14T02:12:37.253Z,20
2019-04-14T02:13:49.445Z,20
2019-04-14T02:15:01.708Z,19.2
2019-04-14T02:16:13.941Z,20.6
2019-04-14T02:17:26.125Z,20
2019-04-14T02:18:38.453Z,20.4
2019-04-14T02:19:50.504Z,20.4
2019-04-14T02:21:02.622Z,20.9
2019-04-14T02:22:14.921Z,20.8
2019-04-14T02:23:27.009Z,20.7
2019-04-14T02:24:39.297Z,21.2
2019-04-14T02:25:51.447Z,21.7
2019-04-14T02:27:03.589Z,21.2
2019-04-14T02:28:15.882Z,21.2
2019-04-14T02:29:28.046Z,21.4
2019-04-14T02:30:40.189Z,20.3
2019-04-14T02:31:52.453Z,19
2019-04-14T02:33:04.575Z,19.7
2019-04-14T02:34:16.857Z,20.3
2019-04-14T02:35:28.936Z,20.2
2019-04-14T02:36:42.149Z,19
2019-04-14T02:37:53.365Z,19.5
2019-04-14T02:39:05.643Z,19.3
2019-04-14T02:40:17.853Z,19.8
2019-04-14T02:41:29.907Z,19.3
2019-04-14T02:42:42.139Z,18.8
2019-04-14T02:43:54.394Z,19.3
2019-04-14T02:45:06.558Z,20
2019-04-14T02:46:18.797Z,19
2019-04-14T02:47:31.007Z,19.1
2019-04-14T02:48:43.076Z,19.3
2019-04-14T02:49:55.392Z,19.3
2019-04-14T02:51:07.662Z,19.5
2019-04-14T02:52:19.773Z,19.7
2019-04-14T02:53:31.949Z,19.1
2019-04-14T02:54:44.086Z,18.8
2019-04-14T02:55:56.231Z,19.5
2019-04-14T02:57:08.541Z,19.8
2019-04-14T02:58:20.787Z,18.8
2019-04-14T02:59:32.943Z,18.9
2019-04-14T03:00:45.029Z,20.1
2019-04-14T03:01:57.289Z,20.3
2019-04-14T03:03:09.620Z,19.6
2019-04-14T03:04:21.792Z,19.8
2019-04-14T03:05:33.992Z,19.9
2019-04-14T03:06:46.217Z,19.7
2019-04-14T03:07:58.363Z,20
2019-04-14T03:09:10.567Z,19.7
2019-04-14T03:10:22.654Z,20.7
2019-04-14T03:11:34.917Z,19.9
2019-04-14T03:12:47.097Z,19.7
2019-04-14T03:13:59.145Z,20
2019-04-14T03:15:11.510Z,19.9
2019-04-14T03:16:23.750Z,19.9
2019-04-14T03:17:35.742Z,21
2019-04-14T03:18:47.954Z,20.7
2019-04-14T03:20:04.716Z,21.4
2019-04-14T03:21:12.314Z,20.6
2019-04-14T03:22:24.596Z,20.4
2019-04-14T03:23:36.687Z,21.3
2019-04-14T03:24:48.902Z,19.5
2019-04-14T03:26:01.102Z,20.4
2019-04-14T03:27:13.401Z,22.1
2019-04-14T03:28:25.622Z,22.3
2019-04-14T03:29:37.700Z,20.9
2019-04-14T03:30:49.909Z,21.5
2019-04-14T03:32:02.233Z,21.1
2019-04-14T03:33:14.265Z,21.6
2019-04-14T03:34:30.727Z,21.2
2019-04-14T03:35:43.272Z,22.2
2019-04-14T03:36:51.055Z,20.6
2019-04-14T03:38:03.067Z,21.8
2019-04-14T03:39:15.224Z,20.9
2019-04-14T03:40:27.534Z,21.5
2019-04-14T03:41:39.703Z,21.4
2019-04-14T03:42:51.805Z,21.8
2019-04-14T03:44:04.327Z,22.5
2019-04-14T03:45:16.198Z,22.1
2019-04-14T03:46:28.381Z,21.9
2019-04-14T03:47:40.614Z,22
2019-04-14T03:48:52.981Z,20.9
2019-04-14T03:50:04.972Z,22
2019-04-14T03:51:17.321Z,21
2019-04-14T03:52:29.498Z,21.1
2019-04-14T03:53:41.646Z,21.3
2019-04-14T03:54:53.837Z,20.9
2019-04-14T03:56:06.228Z,20.5
2019-04-14T03:57:18.156Z,21.2
2019-04-14T03:58:30.358Z,20.5
2019-04-14T03:59:42.657Z,21.2
2019-04-14T04:00:54.825Z,21.9
2019-04-14T04:02:06.998Z,21.6
2019-04-14T04:03:19.275Z,20.9
2019-04-14T04:04:31.395Z,21.1
2019-04-14T04:05:43.521Z,21.2
2019-04-14T04:06:55.683Z,20.4
2019-04-14T04:08:08.068Z,21
2019-04-14T04:09:20.078Z,20.9
2019-04-14T04:10:32.451Z,20.9
2019-04-14T04:11:45.294Z,21.8
2019-04-14T04:12:56.795Z,21
2019-04-14T04:14:08.856Z,21.7
2019-04-14T04:15:21.388Z,21.2
2019-04-14T04:16:33.346Z,21.2
2019-04-14T04:17:45.501Z,20.4
2019-04-14T04:18:57.652Z,20.9
2019-04-14T04:20:10.014Z,21.2
2019-04-14T04:21:22.216Z,20.2
2019-04-14T04:22:34.311Z,21.1
2019-04-14T04:23:47.628Z,21.3
2019-04-14T04:24:58.718Z,21
2019-04-14T04:26:10.825Z,21.1
2019-04-14T04:27:23.079Z,21.9
2019-04-14T04:28:35.386Z,21.7
2019-04-14T04:29:47.497Z,20.8
2019-04-14T04:30:59.584Z,21.3
2019-04-14T04:32:11.879Z,21.3
2019-04-14T04:33:24.128Z,22
2019-04-14T04:34:36.306Z,21.3
2019-04-14T04:35:48.383Z,21.1
2019-04-14T04:37:00.578Z,21.9
2019-04-14T04:38:12.879Z,21.3
2019-04-14T04:39:25.125Z,21.9
2019-04-14T04:40:37.309Z,20.9
2019-04-14T04:41:49.379Z,21.5
2019-04-14T04:43:01.601Z,21.6
2019-04-14T04:44:13.848Z,21.2
2019-04-14T04:45:25.935Z,22.4
2019-04-14T04:46:38.337Z,21.8
2019-04-14T04:47:50.374Z,22.3
2019-04-14T04:49:02.625Z,23.4
2019-04-14T04:50:14.831Z,23.6
2019-04-14T04:51:27.012Z,24.3
2019-04-14T04:52:39.253Z,25.2
2019-04-14T04:53:52.365Z,24.9
2019-04-14T04:55:03.557Z,24.4
2019-04-14T04:56:15.699Z,26.6
2019-04-14T04:57:27.900Z,25.9
2019-04-14T04:58:40.190Z,26.2
2019-04-14T04:59:52.346Z,26.4
2019-04-14T05:01:04.636Z,25.8
2019-04-14T05:02:16.690Z,26.2
2019-04-14T05:03:28.957Z,25.2
2019-04-14T05:04:41.166Z,25.5
2019-04-14T05:05:53.371Z,27.8
2019-04-14T05:08:17.730Z,26.5
2019-04-14T05:09:29.965Z,26.9
2019-04-14T05:10:42.134Z,26.7
2019-04-14T05:11:54.241Z,27.2
2019-04-14T05:13:06.472Z,27.1
2019-04-14T05:14:18.645Z,27.3
2019-04-14T05:15:30.965Z,28
2019-04-14T05:16:43.160Z,27.7
2019-04-14T05:17:55.322Z,26.5
2019-04-14T05:19:07.416Z,28.6
2019-04-14T05:20:19.714Z,27.2
2019-04-14T05:21:31.804Z,27.8
2019-04-14T05:22:44.105Z,27.7
2019-04-14T05:23:56.287Z,28.5
2019-04-14T05:25:08.384Z,28.7
2019-04-14T05:26:20.611Z,27.6
2019-04-14T05:27:32.878Z,28.2
2019-04-14T05:28:45.069Z,28.2
2019-04-14T05:29:57.280Z,27.9
2019-04-14T05:31:09.416Z,28.1
2019-04-14T05:32:21.936Z,28.8
2019-04-14T05:33:33.770Z,28.6
2019-04-14T05:34:45.950Z,27.4
2019-04-14T05:35:58.144Z,27.6
2019-04-14T05:37:10.413Z,28.5
2019-04-14T05:38:22.541Z,28.5
2019-04-14T05:39:35.117Z,28.8
2019-04-14T05:40:47.120Z,29
2019-04-14T05:41:59.131Z,29.5
2019-04-14T05:43:11.404Z,27.6
2019-04-14T05:44:23.694Z,28.5
2019-04-14T05:45:35.710Z,27.6
2019-04-14T05:46:48.087Z,28.5
2019-04-14T05:48:00.168Z,29.6
2019-04-14T05:49:12.515Z,29.2
2019-04-14T05:50:24.657Z,30.1
2019-04-14T05:51:36.886Z,28.1
2019-04-14T05:52:48.998Z,27.8
2019-04-14T05:54:01.175Z,29.1
2019-04-14T05:55:13.311Z,27.8
2019-04-14T05:56:25.468Z,29.3
2019-04-14T05:57:37.747Z,28.2
2019-04-14T05:58:49.997Z,29.7
2019-04-14T06:00:02.085Z,28.2
2019-04-14T06:01:14.375Z,29.4
2019-04-14T06:02:26.573Z,28.3
2019-04-14T06:03:38.667Z,28.1
2019-04-14T06:04:51.609Z,29
2019-04-14T06:06:04.264Z,29.5
2019-04-14T06:07:15.294Z,30.1
2019-04-14T06:08:27.518Z,28.8
2019-04-14T06:09:39.663Z,29.9
2019-04-14T06:10:51.954Z,29
2019-04-14T06:12:04.100Z,29.5
2019-04-14T06:13:19.256Z,27.8
2019-04-14T06:14:28.500Z,29.4
2019-04-14T06:15:40.728Z,29.5
2019-04-14T06:16:52.882Z,30.2
2019-04-14T06:18:05.083Z,29.5
2019-04-14T06:19:17.235Z,29.6
2019-04-14T06:20:29.480Z,30.4
2019-04-14T06:21:41.667Z,30
2019-04-14T06:22:53.875Z,29.8
2019-04-14T06:24:05.961Z,29.6
2019-04-14T06:25:19.812Z,29.7
2019-04-14T06:26:30.366Z,29
2019-04-14T06:27:42.651Z,29.1
2019-04-14T06:28:54.857Z,29.7
2019-04-14T06:30:07.130Z,28.3
2019-04-14T06:31:19.244Z,28.3
2019-04-14T06:32:31.327Z,27.7
2019-04-14T06:33:43.613Z,28.5
2019-04-14T06:34:55.916Z,28
2019-04-14T06:36:07.946Z,27.5
2019-04-14T06:37:20.345Z,26.4
2019-04-14T06:38:32.313Z,27.6
2019-04-14T06:39:44.495Z,27.6
2019-04-14T06:40:56.792Z,27.4
2019-04-14T06:42:08.958Z,26.2
2019-04-14T06:43:21.120Z,26.4
2019-04-14T06:44:33.451Z,26.1
2019-04-14T06:45:45.479Z,24.1
2019-04-14T06:46:57.776Z,24.4
2019-04-14T06:48:09.862Z,24.1
2019-04-14T06:49:22.248Z,24.2
2019-04-14T06:50:34.260Z,23.8
2019-04-14T06:51:49.726Z,23
2019-04-14T06:52:58.752Z,23.3
2019-04-14T06:54:10.950Z,20.5
2019-04-14T06:55:23.109Z,21.5
2019-04-14T06:56:35.366Z,22.7
2019-04-14T06:57:47.511Z,22.3
2019-04-14T06:58:59.731Z,21.3
2019-04-14T07:00:11.840Z,19.7
2019-04-14T07:01:24.112Z,20.8
2019-04-14T07:02:37.340Z,21.4
2019-04-14T07:03:48.515Z,22.1
2019-04-14T07:05:00.747Z,20.6
2019-04-14T07:06:12.901Z,20.5
2019-04-14T07:07:25.010Z,20.7
2019-04-14T07:08:37.374Z,20.1
2019-04-14T07:09:49.384Z,19.9
2019-04-14T07:11:01.674Z,20.3
2019-04-14T07:12:13.808Z,19.5
2019-04-14T07:13:26.125Z,19.3
2019-04-14T07:14:38.240Z,18.9
2019-04-14T07:15:50.474Z,21
2019-04-14T07:17:02.730Z,19.8
2019-04-14T07:18:14.942Z,20.1
2019-04-14T07:19:26.954Z,20.5
2019-04-14T07:20:39.365Z,19.3
2019-04-14T07:21:51.434Z,19.9
2019-04-14T07:23:03.647Z,18.8
2019-04-14T07:24:15.798Z,19.2
2019-04-14T07:25:28.048Z,18.1
2019-04-14T07:26:40.192Z,18.5
2019-04-14T07:27:52.512Z,19.5
2019-04-14T07:29:04.633Z,19.5
2019-04-14T07:30:16.844Z,18.9
2019-04-14T07:31:28.989Z,19.1
2019-04-14T07:32:41.206Z,19.3
2019-04-14T07:33:53.345Z,17.8
2019-04-14T07:35:05.962Z,18.4
2019-04-14T07:36:19.191Z,19
2019-04-14T07:37:29.966Z,18.6
2019-04-14T07:38:42.089Z,18.8
2019-04-14T07:39:54.370Z,18.8
2019-04-14T07:41:06.668Z,18.2
2019-04-14T07:42:18.759Z,17.7
2019-04-14T07:43:30.935Z,18.2
2019-04-14T07:44:43.215Z,18
2019-04-14T07:45:55.267Z,18.1
2019-04-14T07:47:07.536Z,17.2
2019-04-14T07:48:19.669Z,17.9
2019-04-14T07:49:31.941Z,18.1
2019-04-14T07:50:44.038Z,17.4
2019-04-14T07:51:56.476Z,17.5
2019-04-14T07:53:08.666Z,17.7
2019-04-14T07:54:20.777Z,17.9
2019-04-14T07:55:32.811Z,17.1
2019-04-14T07:56:45.254Z,17.1
2019-04-14T07:57:57.291Z,16.7
2019-04-14T07:59:09.487Z,16.9
2019-04-14T08:00:21.613Z,16.8
2019-04-14T08:01:33.886Z,17.1
2019-04-14T08:02:46.423Z,17
2019-04-14T08:03:58.265Z,16.2
2019-04-14T08:05:10.466Z,16.1
2019-04-14T08:06:22.653Z,17.3
2019-04-14T08:07:34.755Z,15.5
2019-04-14T08:08:47.219Z,16.5
2019-04-14T08:09:59.160Z,16
2019-04-14T08:11:11.438Z,16
2019-04-14T08:12:23.590Z,16
2019-04-14T08:13:35.825Z,15.5
2019-04-14T08:14:47.936Z,16.5
2019-04-14T08:16:00.221Z,15.2
2019-04-14T08:17:12.563Z,16.1
2019-04-14T08:18:24.644Z,15.8
2019-04-14T08:19:36.719Z,15.5
2019-04-14T08:20:49.003Z,15.4
2019-04-14T08:22:02.592Z,15.1
2019-04-14T08:23:15.322Z,16.2
2019-04-14T08:24:25.500Z,15.9
2019-04-14T08:25:37.784Z,15.7
2019-04-14T08:26:50.060Z,16
2019-04-14T08:28:02.173Z,15.5
2019-04-14T08:29:14.386Z,15.2
2019-04-14T08:30:26.636Z,15.9
2019-04-14T08:31:38.703Z,15.6
2019-04-14T08:32:51.014Z,15
2019-04-14T08:34:03.053Z,15.2
2019-04-14T08:35:15.355Z,15.8
2019-04-14T08:36:27.651Z,15.2
2019-04-14T08:37:39.735Z,15.1
2019-04-14T08:38:51.834Z,14.6
2019-04-14T08:40:04.034Z,15.4
2019-04-14T08:41:16.444Z,14.8
2019-04-14T08:42:28.426Z,14.4
2019-04-14T08:43:40.700Z,14.7
2019-04-14T08:44:52.916Z,15.2
2019-04-14T08:46:05.564Z,15.3
2019-04-14T08:47:17.294Z,15.8
2019-04-14T08:48:29.406Z,15.3
2019-04-14T08:49:41.699Z,14.7
2019-04-14T08:50:53.885Z,15.4
2019-04-14T08:52:07.631Z,14.7
2019-04-14T08:53:18.450Z,15.1
2019-04-14T08:54:30.770Z,15
2019-04-14T08:55:42.578Z,15
2019-04-14T08:56:54.770Z,14.6
2019-04-14T08:58:06.972Z,14.7
2019-04-14T08:59:19.249Z,14.9
2019-04-14T09:00:31.451Z,14.8
2019-04-14T09:01:43.646Z,14.4
2019-04-14T09:02:55.787Z,14.4
2019-04-14T09:04:08.054Z,14.5
2019-04-14T09:05:20.463Z,15
2019-04-14T09:06:32.433Z,14.5
2019-04-14T09:07:44.631Z,14.8
2019-04-14T09:08:56.828Z,14.1
2019-04-14T09:10:08.939Z,14.1
2019-04-14T09:11:21.250Z,13.8
2019-04-14T09:12:33.304Z,14.2
2019-04-14T09:13:45.602Z,14
2019-04-14T09:14:57.723Z,14.2
2019-04-14T09:16:10.077Z,13.6
2019-04-14T09:17:22.183Z,14.2
2019-04-14T09:18:34.281Z,13.6
2019-04-14T09:19:46.514Z,14.2
2019-04-14T09:20:58.779Z,14.4
2019-04-14T09:22:10.870Z,13.9
2019-04-14T09:23:23.063Z,14.5
2019-04-14T09:24:35.356Z,13.9
2019-04-14T09:25:47.581Z,13.5
2019-04-14T09:26:59.671Z,13.5
2019-04-14T09:28:12.048Z,13.7
2019-04-14T09:29:24.134Z,14.3
2019-04-14T09:30:36.405Z,13.7
2019-04-14T09:31:48.435Z,14
2019-04-14T09:33:00.740Z,14.1
2019-04-14T09:34:12.867Z,14.1
2019-04-14T09:35:25.200Z,13.9
2019-04-14T09:36:37.261Z,13.9
2019-04-14T09:37:49.520Z,13.7
2019-04-14T09:39:01.643Z,13.6
2019-04-14T09:40:13.905Z,13.6
2019-04-14T09:41:26.118Z,14.1
2019-04-14T09:42:38.264Z,13.6
2019-04-14T09:43:50.493Z,13.9
2019-04-14T09:45:02.684Z,14
2019-04-14T09:46:14.794Z,13.7
2019-04-14T09:47:26.993Z,13.9
2019-04-14T09:48:39.199Z,14.2
2019-04-14T09:49:51.544Z,13.6
2019-04-14T09:51:03.632Z,13.5
2019-04-14T09:52:15.865Z,13.2
2019-04-14T09:53:28.049Z,13.9
2019-04-14T09:54:40.158Z,14.1
2019-04-14T09:55:52.355Z,13.4
2019-04-14T09:57:04.730Z,13.7
2019-04-14T09:58:16.763Z,14
2019-04-14T09:59:28.921Z,13.4
2019-04-14T10:00:41.155Z,13.3
2019-04-14T10:01:53.671Z,13.5
2019-04-14T10:03:05.526Z,14.2
2019-04-14T10:04:17.765Z,14.1
2019-04-14T10:05:30.077Z,13.5
2019-04-14T10:06:42.236Z,13
2019-04-14T10:07:54.389Z,13
2019-04-14T10:09:06.639Z,13.2
2019-04-14T10:10:18.699Z,13.4
2019-04-14T10:11:30.985Z,13.3
2019-04-14T10:12:43.078Z,13.5
2019-04-14T10:13:55.439Z,13.5
2019-04-14T10:15:07.520Z,13.8
2019-04-14T10:16:19.732Z,13.1
2019-04-14T10:17:34.004Z,13.3
2019-04-14T10:18:49.572Z,13.3
2019-04-14T10:19:56.256Z,12.8
2019-04-14T10:21:08.649Z,11.9
2019-04-14T10:22:20.642Z,12.5
2019-04-14T10:23:32.945Z,12.9
2019-04-14T10:24:45.041Z,12.7
2019-04-14T10:25:57.350Z,12.9
2019-04-14T10:27:09.448Z,12.2
2019-04-14T10:28:21.841Z,12.1
2019-04-14T10:29:33.989Z,12.4
2019-04-14T10:30:46.133Z,12.3
2019-04-14T10:31:58.214Z,12.8
2019-04-14T10:33:10.539Z,12.3
2019-04-14T10:34:22.615Z,11.8
2019-04-14T10:35:34.866Z,11.8
2019-04-14T10:36:47.040Z,11.5
2019-04-14T10:37:59.297Z,11.6
2019-04-14T10:39:11.380Z,11.6
2019-04-14T10:40:23.666Z,11.6
2019-04-14T10:41:35.882Z,11.2
2019-04-14T10:42:48.137Z,10.6
2019-04-14T10:44:00.186Z,11
2019-04-14T10:45:12.371Z,12.1
2019-04-14T10:46:24.546Z,11.5
2019-04-14T10:47:36.846Z,12.2
2019-04-14T10:48:48.942Z,11.3
2019-04-14T10:50:01.253Z,11.2
2019-04-14T10:51:13.336Z,11.5
2019-04-14T10:52:25.701Z,11.2
2019-04-14T10:53:37.884Z,12
2019-04-14T10:54:50.123Z,11.8
2019-04-14T10:56:02.127Z,11.9
2019-04-14T10:57:14.418Z,11.9
2019-04-14T10:58:26.540Z,12.1
2019-04-14T10:59:38.779Z,11.7
2019-04-14T11:00:50.942Z,12
2019-04-14T11:02:03.206Z,12.2
2019-04-14T11:03:15.301Z,11.9
2019-04-14T11:04:27.575Z,12
2019-04-14T11:05:39.848Z,12
2019-04-14T11:06:52.287Z,11.7
2019-04-14T11:08:04.074Z,12.1
2019-04-14T11:09:16.350Z,12.4
2019-04-14T11:10:28.455Z,12.5
2019-04-14T11:11:40.826Z,12.3
2019-04-14T11:12:52.884Z,12.8
2019-04-14T11:14:05.461Z,11.9
2019-04-14T11:15:17.267Z,12.5
2019-04-14T11:16:29.540Z,12
2019-04-14T11:17:41.762Z,11.9
2019-04-14T11:18:53.917Z,12.3
2019-04-14T11:20:06.112Z,12.1
2019-04-14T11:21:18.317Z,12.5
2019-04-14T11:22:30.415Z,11.7
2019-04-14T11:23:42.694Z,11.3
2019-04-14T11:24:54.870Z,10.7
2019-04-14T11:26:07.152Z,11.2
2019-04-14T11:27:19.343Z,11
2019-04-14T11:28:31.483Z,11
2019-04-14T11:29:43.673Z,11.1
2019-04-14T11:30:55.870Z,11.1
2019-04-14T11:32:08.026Z,10.6
2019-04-14T11:33:20.334Z,10.2
2019-04-14T11:34:32.384Z,10.4
2019-04-14T11:35:44.555Z,10.7
2019-04-14T11:36:56.817Z,10.2
2019-04-14T11:38:09.350Z,10
2019-04-14T11:39:21.141Z,10.2
2019-04-14T11:40:33.448Z,10.1
2019-04-14T11:41:45.646Z,9.7
2019-04-14T11:42:57.740Z,10.3
2019-04-14T11:44:10.025Z,10.3
2019-04-14T11:45:22.334Z,10.8
2019-04-14T11:46:34.397Z,10.2
2019-04-14T11:47:46.704Z,10.1
2019-04-14T11:48:58.720Z,10.6
2019-04-14T11:50:10.995Z,10.3
2019-04-14T11:51:23.102Z,9.7
2019-04-14T11:52:35.527Z,11.1
2019-04-14T11:53:47.588Z,10.4
2019-04-14T11:54:59.773Z,10.9
2019-04-14T11:56:12.119Z,10.7
2019-04-14T11:57:24.155Z,11.3
2019-04-14T11:58:36.406Z,10.7
2019-04-14T11:59:48.616Z,9.8
2019-04-14T12:01:00.650Z,10.7
2019-04-14T12:02:12.942Z,10.8
2019-04-14T12:03:25.132Z,10.9
2019-04-14T12:04:37.426Z,10.4
2019-04-14T12:05:49.544Z,10.4
2019-04-14T12:07:03.778Z,10.6
2019-04-14T12:08:13.834Z,9.8
2019-04-14T12:09:26.225Z,10.1
2019-04-14T12:10:38.419Z,10.8
2019-04-14T12:11:50.547Z,10.5
2019-04-14T12:13:02.609Z,10.3
2019-04-14T12:14:15.304Z,10.2
2019-04-14T12:15:27.079Z,10
2019-04-14T12:17:51.655Z,10.7
2019-04-14T12:19:03.694Z,10.1
2019-04-14T12:20:15.777Z,10.3
2019-04-14T12:21:28.059Z,10
2019-04-14T12:22:40.395Z,10.3
2019-04-14T12:23:52.533Z,10
2019-04-14T12:25:04.551Z,9.4
2019-04-14T12:26:16.756Z,10.2
2019-04-14T12:27:29.063Z,9.5
2019-04-14T12:28:41.397Z,10.1
2019-04-14T12:29:53.442Z,9.5
2019-04-14T12:31:05.713Z,10.7
2019-04-14T12:32:20.054Z,10.2
2019-04-14T12:33:30.020Z,9.5
2019-04-14T12:34:42.137Z,9.8
2019-04-14T12:35:54.399Z,9.9
2019-04-14T12:37:08.453Z,9.4
2019-04-14T12:38:18.821Z,9.4
2019-04-14T12:39:30.897Z,9.5
2019-04-14T12:40:43.101Z,9.5
2019-04-14T12:41:55.420Z,9.4
2019-04-14T12:43:07.561Z,9.5
2019-04-14T12:44:19.667Z,9.9
2019-04-14T12:45:33.976Z,10
2019-04-14T12:46:44.119Z,9.6
2019-04-14T12:47:56.441Z,10.3
2019-04-14T12:49:08.515Z,10.2
2019-04-14T12:50:20.749Z,9.8
2019-04-14T12:51:32.841Z,9.3
2019-04-14T12:52:45.203Z,9.2
2019-04-14T12:53:57.410Z,9.5
2019-04-14T12:55:09.607Z,9.9
2019-04-14T12:56:21.693Z,9.1
2019-04-14T12:57:34.045Z,9.3
2019-04-14T12:58:49.213Z,10.1
2019-04-14T12:59:58.340Z,9.1
2019-04-14T13:01:10.398Z,9.6
2019-04-14T13:02:24.138Z,9.1
2019-04-14T13:03:36.557Z,9.1
2019-04-14T13:04:47.167Z,8.9
2019-04-14T13:05:59.344Z,8.2
2019-04-14T13:07:11.521Z,9.4
2019-04-14T13:08:23.738Z,9.4
2019-04-14T13:09:35.874Z,9.4
2019-04-14T13:10:47.959Z,9.1
2019-04-14T13:12:00.246Z,8.7
2019-04-14T13:13:12.382Z,9.3
2019-04-14T13:14:24.649Z,9.3
2019-04-14T13:15:36.752Z,8.8
2019-04-14T13:16:49.029Z,9.1
2019-04-14T13:18:01.226Z,9.7
2019-04-14T13:19:13.412Z,8.6
2019-04-14T13:20:25.629Z,10.1
2019-04-14T13:21:37.859Z,10.3
2019-04-14T13:22:50.059Z,10.1
2019-04-14T13:24:02.108Z,9.7
2019-04-14T13:25:14.316Z,9.7
2019-04-14T13:26:26.619Z,10.2
2019-04-14T13:27:38.690Z,9.9
2019-04-14T13:28:51.008Z,10.1
2019-04-14T13:31:15.397Z,10.5
2019-04-14T13:32:27.471Z,9.6
2019-04-14T13:33:39.821Z,9.6
2019-04-14T13:34:51.934Z,10.2
2019-04-14T13:36:04.160Z,9.1
2019-04-14T13:37:16.251Z,9.2
2019-04-14T13:38:28.539Z,9.5
2019-04-14T13:39:40.655Z,10.1
2019-04-14T13:40:53.006Z,10.8
2019-04-14T13:42:05.309Z,10.4
2019-04-14T13:43:19.182Z,10.7
2019-04-14T13:44:29.409Z,10.3
2019-04-14T13:45:41.693Z,11.1
2019-04-14T13:46:54.005Z,10.1
2019-04-14T13:48:06.076Z,10
2019-04-14T13:49:18.280Z,10.6
2019-04-14T13:50:30.594Z,10.6
2019-04-14T13:51:42.576Z,8.2
2019-04-14T13:52:54.860Z,10.3
2019-04-14T13:54:07.124Z,10.2
2019-04-14T13:55:19.240Z,10.5
2019-04-14T13:56:33.962Z,10.3
2019-04-14T13:57:43.741Z,11
2019-04-14T13:58:55.876Z,10.2
2019-04-14T14:00:07.959Z,10.6
2019-04-14T14:01:20.179Z,10.7
2019-04-14T14:02:32.411Z,11.1
2019-04-14T14:03:44.587Z,11
2019-04-14T14:04:56.808Z,10.5
2019-04-14T14:06:09.017Z,9.9
2019-04-14T14:07:21.190Z,11
2019-04-14T14:08:33.279Z,10.1
2019-04-14T14:09:49.251Z,9.3
2019-04-14T14:10:57.893Z,10.6
2019-04-14T14:12:10.044Z,10.8
2019-04-14T14:13:22.166Z,10.4
2019-04-14T14:14:34.348Z,10.7
2019-04-14T14:15:46.499Z,9.8
2019-04-14T14:16:58.726Z,10.2
2019-04-14T14:18:11.011Z,10.3
2019-04-14T14:19:23.127Z,9.7
2019-04-14T14:20:35.310Z,10.4
2019-04-14T14:21:47.492Z,10.4
2019-04-14T14:22:59.775Z,10.4
2019-04-14T14:24:11.929Z,10.4
2019-04-14T14:25:24.051Z,10.1
2019-04-14T14:26:36.338Z,10.2
2019-04-14T14:27:48.499Z,10.4
2019-04-14T14:29:00.738Z,10.3
2019-04-14T14:30:12.875Z,6.3
2019-04-14T14:31:25.063Z,9.5
2019-04-14T14:32:37.253Z,10.3
2019-04-14T14:33:49.460Z,10.4
2019-04-14T14:35:01.567Z,10.6
2019-04-14T14:36:13.848Z,9.9
2019-04-14T14:37:26.092Z,9.8
2019-04-14T14:38:38.237Z,10
2019-04-14T14:39:50.374Z,10
2019-04-14T14:41:02.625Z,9.5
2019-04-14T14:42:14.807Z,9.9
2019-04-14T14:43:27.012Z,10.4
2019-04-14T14:44:39.109Z,9.9
2019-04-14T14:45:51.469Z,9.8
2019-04-14T14:47:03.607Z,9.8
2019-04-14T14:48:15.779Z,9.9
2019-04-14T14:49:27.927Z,9.8
2019-04-14T14:50:40.203Z,9.8
2019-04-14T14:51:52.283Z,9.3
2019-04-14T14:53:04.612Z,10.5
2019-04-14T14:54:16.780Z,10.1
2019-04-14T14:55:32.432Z,9.8
2019-04-14T14:56:41.212Z,10
2019-04-14T14:57:53.334Z,10.4
2019-04-14T14:59:05.449Z,10.6
2019-04-14T15:00:17.717Z,10
2019-04-14T15:01:29.822Z,10.4
2019-04-14T15:02:42.312Z,9.1
2019-04-14T15:03:54.317Z,9.7
2019-04-14T15:05:06.541Z,8.6
2019-04-14T15:06:18.678Z,10.6
2019-04-14T15:07:31.026Z,9.9
2019-04-14T15:08:43.052Z,10.1
2019-04-14T15:09:55.272Z,9.9
2019-04-14T15:11:07.456Z,10
2019-04-14T15:12:19.650Z,10.1
2019-04-14T15:13:31.745Z,10.4
2019-04-14T15:14:44.046Z,10
2019-04-14T15:15:56.160Z,10.3
2019-04-14T15:17:08.460Z,9.9
2019-04-14T15:18:20.680Z,10.9
2019-04-14T15:19:32.829Z,9.7
2019-04-14T15:20:45.101Z,10
2019-04-14T15:21:57.197Z,10
2019-04-14T15:23:09.298Z,10.8
2019-04-14T15:24:21.612Z,10.2
2019-04-14T15:25:33.689Z,10.8
2019-04-14T15:26:46.062Z,10
2019-04-14T15:27:58.091Z,10.1
2019-04-14T15:29:10.403Z,10
2019-04-14T15:30:22.567Z,9
2019-04-14T15:31:34.760Z,10.5
2019-04-14T15:32:47.077Z,10.3
2019-04-14T15:33:59.047Z,9.9
2019-04-14T15:35:11.362Z,8.7
2019-04-14T15:36:23.546Z,10.2
2019-04-14T15:37:35.639Z,10.1
2019-04-14T15:38:48.065Z,10
2019-04-14T15:40:00.009Z,10.4
2019-04-14T15:41:12.204Z,10.3
2019-04-14T15:42:24.506Z,9.7
2019-04-14T15:43:37.248Z,10
2019-04-14T15:44:48.842Z,10.3
2019-04-14T15:46:01.113Z,10.1
2019-04-14T15:47:13.289Z,10.2
2019-04-14T15:48:25.386Z,10.3
2019-04-14T15:49:37.644Z,10.3
2019-04-14T15:50:49.872Z,10.6
2019-04-14T15:52:01.970Z,10.6
2019-04-14T15:53:14.240Z,10
2019-04-14T15:54:26.511Z,10.8
2019-04-14T15:55:38.779Z,9.9
2019-04-14T15:56:50.750Z,9.2
2019-04-14T15:58:03.191Z,8.7
2019-04-14T15:59:15.230Z,10.4
2019-04-14T16:00:27.465Z,9.5
2019-04-14T16:01:39.671Z,9.4
2019-04-14T16:02:52.048Z,10.3
2019-04-14T16:04:04.041Z,10.2
2019-04-14T16:05:16.175Z,10.1
2019-04-14T16:06:28.508Z,10.5
2019-04-14T16:07:40.654Z,10.3
2019-04-14T16:08:52.750Z,10.3
2019-04-14T16:10:04.970Z,10.2
2019-04-14T16:11:17.052Z,10
2019-04-14T16:12:29.357Z,10
2019-04-14T16:13:41.490Z,8.9
2019-04-14T16:14:53.736Z,10.1
2019-04-14T16:16:05.825Z,10.6